Time,TemperatureF,DewpointF,PressureIn,WindDirection,WindDirectionDegrees,WindSpeedMPH,WindSpeedGustMPH,Humidity,HourlyPrecipIn,Conditions,Clouds,dailyrainin,SoftwareType,DateUTC
2013-02-23 00:05:00,43.5,28.8,30.00,North,11,3.0,3.0,56,0.00,,,0.00,Wunderground v.1.15,2013-02-23 06:05:00,
2013-02-23 00:10:00,43.3,28.6,30.01,North,11,2.0,2.0,56,0.00,,,0.00,Wunderground v.1.15,2013-02-23 06:10:00,
2013-02-23 00:20:00,43.3,28.6,30.01,NNE,13,3.0,5.0,56,0.00,,,0.00,Wunderground v.1.15,2013-02-23 06:20:00,
2013-02-23 00:25:00,43.3,28.6,30.01,NNE,16,3.0,5.0,56,0.00,,,0.00,Wunderground v.1.15,2013-02-23 06:25:00,
2013-02-23 00:35:00,43.2,28.5,30.01,NNE,16,1.0,6.0,56,0.00,,,0.00,Wunderground v.1.15,2013-02-23 06:35:00,
2013-02-23 00:40:00,43.1,28.5,30.01,NNE,16,0.0,1.0,56,0.00,,,0.00,Wunderground v.1.15,2013-02-23 06:40:00,
2013-02-23 00:50:00,42.9,28.7,30.01,NNE,16,0.0,0.0,57,0.00,,,0.00,Wunderground v.1.15,2013-02-23 06:50:00,
2013-02-23 00:55:00,42.8,28.6,30.01,NNE,14,1.0,1.0,57,0.00,,,0.00,Wunderground v.1.15,2013-02-23 06:55:00,
2013-02-23 01:05:00,42.6,28.4,30.00,NNE,14,1.0,7.0,57,0.00,,,0.00,Wunderground v.1.15,2013-02-23 07:05:00,
2013-02-23 01:10:00,42.5,28.8,30.00,NNE,14,2.0,3.0,58,0.00,,,0.00,Wunderground v.1.15,2013-02-23 07:10:00,
2013-02-23 01:20:00,42.3,28.1,30.00,NNE,13,2.0,2.0,57,0.00,,,0.00,Wunderground v.1.15,2013-02-23 07:20:00,
2013-02-23 01:25:00,42.3,28.1,30.00,North,11,2.0,5.0,57,0.00,,,0.00,Wunderground v.1.15,2013-02-23 07:25:00,
2013-02-23 01:35:00,42.2,28.0,30.00,North,4,3.0,3.0,57,0.00,,,0.00,Wunderground v.1.15,2013-02-23 07:35:00,
2013-02-23 01:40:00,42.1,27.9,30.01,North,4,2.0,6.0,57,0.00,,,0.00,Wunderground v.1.15,2013-02-23 07:40:00,
2013-02-23 01:50:00,41.9,27.8,30.01,North,7,2.0,2.0,57,0.00,,,0.00,Wunderground v.1.15,2013-02-23 07:50:00,
2013-02-23 01:55:00,41.9,27.8,30.01,North,8,2.0,3.0,57,0.00,,,0.00,Wunderground v.1.15,2013-02-23 07:55:00,
2013-02-23 02:05:00,41.8,28.1,30.00,North,8,2.0,3.0,58,0.00,,,0.00,Wunderground v.1.15,2013-02-23 08:05:00,
2013-02-23 02:10:00,41.8,28.1,30.00,North,7,2.0,2.0,58,0.00,,,0.00,Wunderground v.1.15,2013-02-23 08:10:00,
2013-02-23 02:20:00,41.5,27.8,30.00,North,7,3.0,6.0,58,0.00,,,0.00,Wunderground v.1.15,2013-02-23 08:20:00,
2013-02-23 02:25:00,41.5,27.8,30.00,North,7,2.0,6.0,58,0.00,,,0.00,Wunderground v.1.15,2013-02-23 08:25:00,
2013-02-23 02:35:00,41.2,28.4,30.00,North,7,0.0,2.0,60,0.00,,,0.00,Wunderground v.1.15,2013-02-23 08:35:00,
2013-02-23 02:40:00,41.1,28.3,30.00,North,7,0.0,0.0,60,0.00,,,0.00,Wunderground v.1.15,2013-02-23 08:40:00,
2013-02-23 02:50:00,40.8,28.0,30.00,North,7,0.0,0.0,60,0.00,,,0.00,Wunderground v.1.15,2013-02-23 08:50:00,
2013-02-23 02:55:00,40.8,28.0,30.00,North,7,1.0,1.0,60,0.00,,,0.00,Wunderground v.1.15,2013-02-23 08:55:00,
2013-02-23 03:05:00,40.6,27.8,30.00,North,7,0.0,1.0,60,0.00,,,0.00,Wunderground v.1.15,2013-02-23 09:05:00,
2013-02-23 03:10:00,40.5,28.1,29.99,North,7,1.0,1.0,61,0.00,,,0.00,Wunderground v.1.15,2013-02-23 09:10:00,
2013-02-23 03:20:00,40.3,28.3,30.00,North,7,0.0,0.0,62,0.00,,,0.00,Wunderground v.1.15,2013-02-23 09:20:00,
2013-02-23 03:25:00,40.2,28.2,29.99,North,7,0.0,0.0,62,0.00,,,0.00,Wunderground v.1.15,2013-02-23 09:25:00,
2013-02-23 03:35:00,40.1,28.1,29.99,North,7,0.0,0.0,62,0.00,,,0.00,Wunderground v.1.15,2013-02-23 09:35:00,
2013-02-23 03:40:00,39.9,27.9,29.99,North,7,0.0,0.0,62,0.00,,,0.00,Wunderground v.1.15,2013-02-23 09:40:00,
2013-02-23 03:50:00,39.6,28.4,30.00,North,7,0.0,0.0,64,0.00,,,0.00,Wunderground v.1.15,2013-02-23 09:50:00,
2013-02-23 03:55:00,39.5,28.3,30.00,North,7,0.0,0.0,64,0.00,,,0.00,Wunderground v.1.15,2013-02-23 09:55:00,
2013-02-23 04:05:00,39.1,28.3,30.01,North,7,0.0,0.0,65,0.00,,,0.00,Wunderground v.1.15,2013-02-23 10:05:00,
2013-02-23 04:10:00,38.9,28.5,30.02,North,7,0.0,0.0,66,0.00,,,0.00,Wunderground v.1.15,2013-02-23 10:10:00,
2013-02-23 04:20:00,38.5,28.5,30.02,North,7,0.0,0.0,67,0.00,,,0.00,Wunderground v.1.15,2013-02-23 10:20:00,
2013-02-23 04:25:00,38.3,28.3,30.02,North,7,0.0,0.0,67,0.00,,,0.00,Wunderground v.1.15,2013-02-23 10:25:00,
2013-02-23 04:35:00,37.9,28.3,30.01,North,7,0.0,0.0,68,0.00,,,0.00,Wunderground v.1.15,2013-02-23 10:35:00,
2013-02-23 04:40:00,37.8,28.2,30.01,North,7,0.0,0.0,68,0.00,,,0.00,Wunderground v.1.15,2013-02-23 10:40:00,
2013-02-23 04:50:00,37.3,28.4,30.02,North,7,0.0,0.0,70,0.00,,,0.00,Wunderground v.1.15,2013-02-23 10:50:00,
2013-02-23 04:55:00,37.2,28.3,30.01,North,7,0.0,0.0,70,0.00,,,0.00,Wunderground v.1.15,2013-02-23 10:55:00,
2013-02-23 05:05:00,37.0,28.1,30.01,North,7,0.0,0.0,70,0.00,,,0.00,Wunderground v.1.15,2013-02-23 11:05:00,
2013-02-23 05:10:00,37.0,28.5,30.01,North,7,0.0,0.0,71,0.00,,,0.00,Wunderground v.1.15,2013-02-23 11:10:00,
2013-02-23 05:20:00,36.9,28.4,30.01,North,7,0.0,0.0,71,0.00,,,0.00,Wunderground v.1.15,2013-02-23 11:20:00,
2013-02-23 05:25:00,36.8,28.3,30.01,North,7,0.0,0.0,71,0.00,,,0.00,Wunderground v.1.15,2013-02-23 11:25:00,
2013-02-23 05:35:00,37.0,28.5,30.01,North,7,0.0,0.0,71,0.00,,,0.00,Wunderground v.1.15,2013-02-23 11:35:00,
2013-02-23 05:40:00,37.2,28.3,30.01,North,7,0.0,0.0,70,0.00,,,0.00,Wunderground v.1.15,2013-02-23 11:40:00,
2013-02-23 05:50:00,37.5,28.2,30.01,North,7,0.0,0.0,69,0.00,,,0.00,Wunderground v.1.15,2013-02-23 11:50:00,
2013-02-23 05:55:00,37.6,28.3,30.01,North,7,0.0,0.0,69,0.00,,,0.00,Wunderground v.1.15,2013-02-23 11:55:00,
2013-02-23 06:05:00,37.6,28.3,30.01,North,7,0.0,0.0,69,0.00,,,0.00,Wunderground v.1.15,2013-02-23 12:05:00,
2013-02-23 06:10:00,37.5,28.6,30.01,North,7,0.0,0.0,70,0.00,,,0.00,Wunderground v.1.15,2013-02-23 12:10:00,
2013-02-23 06:20:00,37.2,28.3,30.00,North,7,0.0,0.0,70,0.00,,,0.00,Wunderground v.1.15,2013-02-23 12:20:00,
2013-02-23 06:25:00,36.9,28.0,30.00,North,7,0.0,0.0,70,0.00,,,0.00,Wunderground v.1.15,2013-02-23 12:25:00,
2013-02-23 06:35:00,36.3,27.8,30.01,North,7,0.0,0.0,71,0.00,,,0.00,Wunderground v.1.15,2013-02-23 12:35:00,
2013-02-23 06:40:00,36.0,27.8,30.02,North,7,0.0,0.0,72,0.00,,,0.00,Wunderground v.1.15,2013-02-23 12:40:00,
2013-02-23 06:50:00,35.6,27.8,30.01,North,7,0.0,0.0,73,0.00,,,0.00,Wunderground v.1.15,2013-02-23 12:50:00,
2013-02-23 06:55:00,35.5,27.7,30.02,North,7,0.0,0.0,73,0.00,,,0.00,Wunderground v.1.15,2013-02-23 12:55:00,
2013-02-23 07:05:00,35.6,27.8,30.03,North,7,0.0,0.0,73,0.00,,,0.00,Wunderground v.1.15,2013-02-23 13:05:00,
2013-02-23 07:10:00,35.8,28.0,30.02,North,7,0.0,0.0,73,0.00,,,0.00,Wunderground v.1.15,2013-02-23 13:10:00,
2013-02-23 07:20:00,36.0,27.8,30.02,North,7,0.0,0.0,72,0.00,,,0.00,Wunderground v.1.15,2013-02-23 13:20:00,
2013-02-23 07:25:00,36.2,27.7,30.03,North,7,0.0,3.0,71,0.00,,,0.00,Wunderground v.1.15,2013-02-23 13:25:00,
2013-02-23 07:35:00,36.5,28.0,30.03,North,7,1.0,3.0,71,0.00,,,0.00,Wunderground v.1.15,2013-02-23 13:35:00,
2013-02-23 07:40:00,36.8,27.9,30.03,North,7,1.0,2.0,70,0.00,,,0.00,Wunderground v.1.15,2013-02-23 13:40:00,
2013-02-23 07:50:00,37.2,28.0,30.04,North,6,2.0,3.0,69,0.00,,,0.00,Wunderground v.1.15,2013-02-23 13:50:00,
2013-02-23 07:55:00,37.6,28.0,30.03,North,6,3.0,3.0,68,0.00,,,0.00,Wunderground v.1.15,2013-02-23 13:55:00,
2013-02-23 08:05:00,38.2,27.5,30.04,North,6,0.0,1.0,65,0.00,,,0.00,Wunderground v.1.15,2013-02-23 14:05:00,
2013-02-23 08:10:00,38.6,27.8,30.05,North,6,1.0,1.0,65,0.00,,,0.00,Wunderground v.1.15,2013-02-23 14:10:00,
2013-02-23 08:20:00,39.1,27.6,30.04,North,6,1.0,1.0,63,0.00,,,0.00,Wunderground v.1.15,2013-02-23 14:20:00,
2013-02-23 08:25:00,39.3,27.7,30.04,North,6,0.0,1.0,63,0.00,,,0.00,Wunderground v.1.15,2013-02-23 14:25:00,
2013-02-23 08:35:00,40.2,27.8,30.04,North,4,1.0,1.0,61,0.00,,,0.00,Wunderground v.1.15,2013-02-23 14:35:00,
2013-02-23 08:40:00,40.6,27.4,30.05,North,4,2.0,2.0,59,0.00,,,0.00,Wunderground v.1.15,2013-02-23 14:40:00,
2013-02-23 08:50:00,41.5,27.8,30.05,North,1,1.0,1.0,58,0.00,,,0.00,Wunderground v.1.15,2013-02-23 14:50:00,
2013-02-23 08:55:00,41.9,27.3,30.05,North,1,1.0,1.0,56,0.00,,,0.00,Wunderground v.1.15,2013-02-23 14:55:00,
2013-02-23 09:05:00,42.6,28.0,30.06,North,1,1.0,1.0,56,0.00,,,0.00,Wunderground v.1.15,2013-02-23 15:05:00,
2013-02-23 09:10:00,42.9,27.8,30.06,North,1,1.0,1.0,55,0.00,,,0.00,Wunderground v.1.15,2013-02-23 15:10:00,
2013-02-23 09:20:00,43.5,28.8,30.05,North,1,0.0,0.0,56,0.00,,,0.00,Wunderground v.1.15,2013-02-23 15:20:00,
2013-02-23 09:25:00,43.9,29.2,30.06,North,0,0.0,0.0,56,0.00,,,0.00,Wunderground v.1.15,2013-02-23 15:25:00,
2013-02-23 09:35:00,44.8,28.2,30.06,North,0,1.0,2.0,52,0.00,,,0.00,Wunderground v.1.15,2013-02-23 15:35:00,
2013-02-23 09:40:00,45.1,28.5,30.06,North,0,1.0,1.0,52,0.00,,,0.00,Wunderground v.1.15,2013-02-23 15:40:00,
2013-02-23 09:50:00,46.0,28.9,30.05,North,0,0.0,0.0,51,0.00,,,0.00,Wunderground v.1.15,2013-02-23 15:50:00,
2013-02-23 09:55:00,46.2,29.5,30.04,North,0,0.0,0.0,52,0.00,,,0.00,Wunderground v.1.15,2013-02-23 15:55:00,
2013-02-23 10:05:00,47.7,30.9,30.05,North,0,0.0,2.0,52,0.00,,,0.00,Wunderground v.1.15,2013-02-23 16:05:00,
2013-02-23 10:10:00,48.6,30.8,30.05,North,0,1.0,1.0,50,0.00,,,0.00,Wunderground v.1.15,2013-02-23 16:10:00,
2013-02-23 10:20:00,49.5,30.6,30.04,North,0,1.0,1.0,48,0.00,,,0.00,Wunderground v.1.15,2013-02-23 16:20:00,
2013-02-23 10:25:00,50.1,30.6,30.04,North,0,0.0,1.0,47,0.00,,,0.00,Wunderground v.1.15,2013-02-23 16:25:00,
2013-02-23 10:35:00,51.3,32.8,30.04,North,0,0.0,1.0,49,0.00,,,0.00,Wunderground v.1.15,2013-02-23 16:35:00,
2013-02-23 10:40:00,51.9,31.2,30.03,North,0,1.0,1.0,45,0.00,,,0.00,Wunderground v.1.15,2013-02-23 16:40:00,
2013-02-23 10:50:00,53.5,32.1,30.03,North,0,1.0,1.0,44,0.00,,,0.00,Wunderground v.1.15,2013-02-23 16:50:00,
2013-02-23 10:55:00,54.8,33.3,30.02,North,0,0.0,2.0,44,0.00,,,0.00,Wunderground v.1.15,2013-02-23 16:55:00,
2013-02-23 11:05:00,56.7,33.8,30.02,North,0,0.0,0.0,42,0.00,,,0.00,Wunderground v.1.15,2013-02-23 17:05:00,
2013-02-23 11:10:00,57.5,32.1,30.02,North,0,1.0,1.0,38,0.00,,,0.00,Wunderground v.1.15,2013-02-23 17:10:00,
2013-02-23 11:20:00,57.8,33.0,30.01,North,0,1.0,2.0,39,0.00,,,0.00,Wunderground v.1.15,2013-02-23 17:20:00,
2013-02-23 11:25:00,58.1,35.1,30.01,North,0,1.0,2.0,42,0.00,,,0.00,Wunderground v.1.15,2013-02-23 17:25:00,
2013-02-23 11:35:00,59.9,34.9,30.00,North,0,1.0,1.0,39,0.00,,,0.00,Wunderground v.1.15,2013-02-23 17:35:00,
2013-02-23 11:40:00,60.1,35.7,30.00,North,0,0.0,0.0,40,0.00,,,0.00,Wunderground v.1.15,2013-02-23 17:40:00,
2013-02-23 11:50:00,61.6,35.1,29.99,North,0,1.0,1.0,37,0.00,,,0.00,Wunderground v.1.15,2013-02-23 17:50:00,
2013-02-23 11:55:00,62.6,34.5,29.99,North,0,1.0,1.0,35,0.00,,,0.00,Wunderground v.1.15,2013-02-23 17:55:00,
2013-02-23 12:05:00,64.3,36.8,29.98,North,0,2.0,4.0,36,0.00,,,0.00,Wunderground v.1.15,2013-02-23 18:05:00,
2013-02-23 12:10:00,65.2,35.4,29.98,NNW,347,2.0,2.0,33,0.00,,,0.00,Wunderground v.1.15,2013-02-23 18:10:00,
2013-02-23 12:20:00,65.8,35.1,29.97,NNW,330,4.0,5.0,32,0.00,,,0.00,Wunderground v.1.15,2013-02-23 18:20:00,
2013-02-23 12:25:00,65.6,36.5,29.97,NNW,329,5.0,5.0,34,0.00,,,0.00,Wunderground v.1.15,2013-02-23 18:25:00,
2013-02-23 12:35:00,66.0,36.8,29.97,NW,322,3.0,4.0,34,0.00,,,0.00,Wunderground v.1.15,2013-02-23 18:35:00,
2013-02-23 12:40:00,66.8,35.2,29.96,West,277,3.0,3.0,31,0.00,,,0.00,Wunderground v.1.15,2013-02-23 18:40:00,
2013-02-23 12:50:00,67.3,34.8,29.95,WNW,296,5.0,7.0,30,0.00,,,0.00,Wunderground v.1.15,2013-02-23 18:50:00,
2013-02-23 12:55:00,67.1,35.4,29.95,NW,308,4.0,7.0,31,0.00,,,0.00,Wunderground v.1.15,2013-02-23 18:55:00,
2013-02-23 13:05:00,68.1,34.6,29.94,WNW,298,3.0,4.0,29,0.00,,,0.00,Wunderground v.1.15,2013-02-23 19:05:00,
2013-02-23 13:10:00,68.4,34.9,29.94,West,271,3.0,3.0,29,0.00,,,0.00,Wunderground v.1.15,2013-02-23 19:10:00,
2013-02-23 13:20:00,68.6,33.3,29.94,WNW,289,2.0,2.0,27,0.00,,,0.00,Wunderground v.1.15,2013-02-23 19:20:00,
2013-02-23 13:25:00,68.8,34.3,29.94,WNW,298,2.0,2.0,28,0.00,,,0.00,Wunderground v.1.15,2013-02-23 19:25:00,
2013-02-23 13:35:00,68.8,34.3,29.93,WNW,284,3.0,4.0,28,0.00,,,0.00,Wunderground v.1.15,2013-02-23 19:35:00,
2013-02-23 13:40:00,69.1,33.7,29.92,NW,316,3.0,3.0,27,0.00,,,0.00,Wunderground v.1.15,2013-02-23 19:40:00,
2013-02-23 13:50:00,69.6,35.0,29.91,West,271,2.0,2.0,28,0.00,,,0.00,Wunderground v.1.15,2013-02-23 19:50:00,
2013-02-23 13:55:00,70.1,35.5,29.91,West,263,3.0,3.0,28,0.00,,,0.00,Wunderground v.1.15,2013-02-23 19:55:00,
2013-02-23 14:04:00,70.1,35.5,29.91,North,0,2.0,3.0,28,0.00,,,0.00,Wunderground v.1.15,2013-02-23 20:04:00,
2013-02-23 14:10:00,69.6,35.0,29.91,NW,305,2.0,2.0,28,0.00,,,0.00,Wunderground v.1.15,2013-02-23 20:10:00,
2013-02-23 14:20:00,68.8,34.3,29.90,North,352,3.0,3.0,28,0.00,,,0.00,Wunderground v.1.15,2013-02-23 20:20:00,
2013-02-23 14:25:00,68.3,34.8,29.90,NNW,339,2.0,3.0,29,0.00,,,0.00,Wunderground v.1.15,2013-02-23 20:25:00,
2013-02-23 14:35:00,68.6,34.2,29.89,NNW,328,2.0,2.0,28,0.00,,,0.00,Wunderground v.1.15,2013-02-23 20:35:00,
2013-02-23 14:40:00,69.4,34.9,29.89,NNW,328,1.0,1.0,28,0.00,,,0.00,Wunderground v.1.15,2013-02-23 20:40:00,
2013-02-23 14:50:00,70.8,34.2,29.88,SW,224,1.0,9.0,26,0.00,,,0.00,Wunderground v.1.15,2013-02-23 20:50:00,
2013-02-23 14:55:00,71.5,34.8,29.88,SW,236,2.0,9.0,26,0.00,,,0.00,Wunderground v.1.15,2013-02-23 20:55:00,
2013-02-23 15:05:00,71.1,33.5,29.88,West,260,1.0,2.0,25,0.00,,,0.00,Wunderground v.1.15,2013-02-23 21:05:00,
2013-02-23 15:10:00,71.1,34.5,29.88,West,260,0.0,0.0,26,0.00,,,0.00,Wunderground v.1.15,2013-02-23 21:10:00,
2013-02-23 15:20:00,70.1,33.6,29.88,NW,322,3.0,3.0,26,0.00,,,0.00,Wunderground v.1.15,2013-02-23 21:20:00,
2013-02-23 15:25:00,69.9,32.5,29.87,NW,325,2.0,3.0,25,0.00,,,0.00,Wunderground v.1.15,2013-02-23 21:25:00,
2013-02-23 15:35:00,69.8,33.3,29.86,NNW,328,1.0,1.0,26,0.00,,,0.00,Wunderground v.1.15,2013-02-23 21:35:00,
2013-02-23 15:40:00,69.6,32.2,29.86,NW,323,1.0,1.0,25,0.00,,,0.00,Wunderground v.1.15,2013-02-23 21:40:00,
2013-02-23 15:50:00,68.8,32.5,29.86,WNW,295,1.0,1.0,26,0.00,,,0.00,Wunderground v.1.15,2013-02-23 21:50:00,
2013-02-23 15:55:00,68.4,32.1,29.86,North,359,1.0,2.0,26,0.00,,,0.00,Wunderground v.1.15,2013-02-23 21:55:00,
2013-02-23 16:04:00,67.9,31.7,29.86,NNW,332,2.0,2.0,26,0.00,,,0.00,Wunderground v.1.15,2013-02-23 22:04:00,
2013-02-23 16:10:00,67.4,30.3,29.86,North,359,1.0,2.0,25,0.00,,,0.00,Wunderground v.1.15,2013-02-23 22:10:00,
2013-02-23 16:20:00,67.1,31.0,29.85,NNW,344,0.0,1.0,26,0.00,,,0.00,Wunderground v.1.15,2013-02-23 22:20:00,
2013-02-23 16:25:00,66.8,30.8,29.86,North,349,1.0,1.0,26,0.00,,,0.00,Wunderground v.1.15,2013-02-23 22:25:00,
2013-02-23 16:35:00,66.3,31.3,29.86,North,350,0.0,1.0,27,0.00,,,0.00,Wunderground v.1.15,2013-02-23 22:35:00,
2013-02-23 16:40:00,66.3,30.4,29.86,North,350,0.0,0.0,26,0.00,,,0.00,Wunderground v.1.15,2013-02-23 22:40:00,
2013-02-23 16:50:00,66.0,31.0,29.86,North,352,1.0,1.0,27,0.00,,,0.00,Wunderground v.1.15,2013-02-23 22:50:00,
2013-02-23 16:55:00,65.8,30.9,29.86,North,353,0.0,1.0,27,0.00,,,0.00,Wunderground v.1.15,2013-02-23 22:55:00,
2013-02-23 17:05:00,65.5,30.6,29.85,North,356,1.0,4.0,27,0.00,,,0.00,Wunderground v.1.15,2013-02-23 23:05:00,
2013-02-23 17:10:00,65.2,30.3,29.86,North,356,1.0,1.0,27,0.00,,,0.00,Wunderground v.1.15,2013-02-23 23:10:00,
2013-02-23 17:20:00,65.0,31.1,29.86,North,356,0.0,0.0,28,0.00,,,0.00,Wunderground v.1.15,2013-02-23 23:20:00,
2013-02-23 17:25:00,64.7,31.7,29.86,North,356,0.0,1.0,29,0.00,,,0.00,Wunderground v.1.15,2013-02-23 23:25:00,
2013-02-23 17:35:00,64.3,29.6,29.86,North,356,1.0,1.0,27,0.00,,,0.00,Wunderground v.1.15,2013-02-23 23:35:00,
2013-02-23 17:40:00,64.2,30.4,29.86,North,356,1.0,1.0,28,0.00,,,0.00,Wunderground v.1.15,2013-02-23 23:40:00,
2013-02-23 17:50:00,63.5,29.8,29.85,North,356,1.0,1.0,28,0.00,,,0.00,Wunderground v.1.15,2013-02-23 23:50:00,
2013-02-23 17:55:00,63.4,30.6,29.85,North,356,0.0,1.0,29,0.00,,,0.00,Wunderground v.1.15,2013-02-23 23:55:00,
2013-02-23 18:05:00,62.7,31.6,29.86,North,356,0.0,0.0,31,0.00,,,0.00,Wunderground v.1.15,2013-02-24 00:05:00,
2013-02-23 18:10:00,62.1,32.6,29.86,North,356,0.0,0.0,33,0.00,,,0.00,Wunderground v.1.15,2013-02-24 00:10:00,
2013-02-23 18:20:00,60.7,33.6,29.86,North,356,0.0,0.0,36,0.00,,,0.00,Wunderground v.1.15,2013-02-24 00:20:00,
2013-02-23 18:25:00,59.9,32.9,29.86,North,356,0.0,0.0,36,0.00,,,0.00,Wunderground v.1.15,2013-02-24 00:25:00,
2013-02-23 18:35:00,58.0,33.8,29.88,North,356,0.0,0.0,40,0.00,,,0.00,Wunderground v.1.15,2013-02-24 00:35:00,
2013-02-23 18:40:00,57.2,32.4,29.88,North,356,0.0,0.0,39,0.00,,,0.00,Wunderground v.1.15,2013-02-24 00:40:00,
2013-02-23 18:50:00,55.3,32.6,29.89,North,356,0.0,0.0,42,0.00,,,0.00,Wunderground v.1.15,2013-02-24 00:50:00,
2013-02-23 18:55:00,54.2,32.7,29.89,North,356,0.0,0.0,44,0.00,,,0.00,Wunderground v.1.15,2013-02-24 00:55:00,
2013-02-23 19:05:00,52.8,32.0,29.89,North,356,0.0,0.0,45,0.00,,,0.00,Wunderground v.1.15,2013-02-24 01:05:00,
2013-02-23 19:10:00,51.9,32.8,29.89,North,356,0.0,0.0,48,0.00,,,0.00,Wunderground v.1.15,2013-02-24 01:10:00,
2013-02-23 19:20:00,50.5,31.0,29.90,North,356,0.0,0.0,47,0.00,,,0.00,Wunderground v.1.15,2013-02-24 01:20:00,
2013-02-23 19:25:00,49.8,31.9,29.90,North,356,0.0,0.0,50,0.00,,,0.00,Wunderground v.1.15,2013-02-24 01:25:00,
2013-02-23 19:35:00,48.8,31.5,29.91,North,356,0.0,0.0,51,0.00,,,0.00,Wunderground v.1.15,2013-02-24 01:35:00,
2013-02-23 19:40:00,48.2,31.4,29.91,North,356,0.0,0.0,52,0.00,,,0.00,Wunderground v.1.15,2013-02-24 01:40:00,
2013-02-23 19:50:00,47.4,32.0,29.92,North,359,0.0,0.0,55,0.00,,,0.00,Wunderground v.1.15,2013-02-24 01:50:00,
2013-02-23 19:55:00,47.3,31.9,29.92,North,359,0.0,0.0,55,0.00,,,0.00,Wunderground v.1.15,2013-02-24 01:55:00,
2013-02-23 20:05:00,47.7,32.3,29.92,North,3,0.0,0.0,55,0.00,,,0.00,Wunderground v.1.15,2013-02-24 02:05:00,
2013-02-23 20:10:00,48.0,32.6,29.92,North,3,0.0,0.0,55,0.00,,,0.00,Wunderground v.1.15,2013-02-24 02:10:00,
2013-02-23 20:20:00,48.2,32.8,29.92,North,3,0.0,0.0,55,0.00,,,0.00,Wunderground v.1.15,2013-02-24 02:20:00,
2013-02-23 20:25:00,48.0,33.0,29.92,North,3,0.0,0.0,56,0.00,,,0.00,Wunderground v.1.15,2013-02-24 02:25:00,
2013-02-23 20:35:00,47.4,32.9,29.92,North,3,0.0,0.0,57,0.00,,,0.00,Wunderground v.1.15,2013-02-24 02:35:00,
2013-02-23 20:40:00,47.1,33.1,29.93,North,3,0.0,0.0,58,0.00,,,0.00,Wunderground v.1.15,2013-02-24 02:40:00,
2013-02-23 20:50:00,46.7,33.1,29.93,North,3,0.0,0.0,59,0.00,,,0.00,Wunderground v.1.15,2013-02-24 02:50:00,
2013-02-23 20:55:00,46.4,32.8,29.93,North,3,0.0,0.0,59,0.00,,,0.00,Wunderground v.1.15,2013-02-24 02:55:00,
2013-02-23 21:05:00,45.8,33.1,29.93,North,3,0.0,0.0,61,0.00,,,0.00,Wunderground v.1.15,2013-02-24 03:05:00,
2013-02-23 21:10:00,45.5,33.2,29.93,North,4,0.0,1.0,62,0.00,,,0.00,Wunderground v.1.15,2013-02-24 03:10:00,
2013-02-23 21:20:00,46.5,34.2,29.93,North,10,1.0,2.0,62,0.00,,,0.00,Wunderground v.1.15,2013-02-24 03:20:00,
2013-02-23 21:25:00,47.7,34.1,29.93,NNE,13,1.0,2.0,59,0.00,,,0.00,Wunderground v.1.15,2013-02-24 03:25:00,
2013-02-23 21:35:00,48.6,34.5,29.93,NNE,14,1.0,1.0,58,0.00,,,0.00,Wunderground v.1.15,2013-02-24 03:35:00,
2013-02-23 21:40:00,48.9,34.8,29.93,NNE,16,1.0,1.0,58,0.00,,,0.00,Wunderground v.1.15,2013-02-24 03:40:00,
2013-02-23 21:50:00,48.8,34.7,29.93,NNE,16,0.0,0.0,58,0.00,,,0.00,Wunderground v.1.15,2013-02-24 03:50:00,
2013-02-23 21:55:00,48.8,35.1,29.93,NNE,16,0.0,0.0,59,0.00,,,0.00,Wunderground v.1.15,2013-02-24 03:55:00,
2013-02-23 22:05:00,48.2,35.0,29.92,NNE,16,0.0,0.0,60,0.00,,,0.00,Wunderground v.1.15,2013-02-24 04:05:00,
2013-02-23 22:10:00,47.7,34.9,29.92,NNE,16,0.0,0.0,61,0.00,,,0.00,Wunderground v.1.15,2013-02-24 04:10:00,
2013-02-23 22:20:00,47.3,34.5,29.93,NNE,17,0.0,0.0,61,0.00,,,0.00,Wunderground v.1.15,2013-02-24 04:20:00,
2013-02-23 22:25:00,47.3,34.5,29.93,NNE,17,0.0,0.0,61,0.00,,,0.00,Wunderground v.1.15,2013-02-24 04:25:00,
2013-02-23 22:35:00,46.7,34.4,29.93,NNE,17,0.0,0.0,62,0.00,,,0.00,Wunderground v.1.15,2013-02-24 04:35:00,
2013-02-23 22:40:00,46.2,34.3,29.92,NNE,17,0.0,0.0,63,0.00,,,0.00,Wunderground v.1.15,2013-02-24 04:40:00,
2013-02-23 22:50:00,46.2,34.7,29.92,NNE,30,1.0,1.0,64,0.00,,,0.00,Wunderground v.1.15,2013-02-24 04:50:00,
2013-02-23 22:55:00,46.4,34.5,29.92,NNE,30,1.0,1.0,63,0.00,,,0.00,Wunderground v.1.15,2013-02-24 04:55:00,
2013-02-23 23:00:00,46.5,34.2,29.92,NNE,30,0.0,1.0,62,0.00,,,0.00,Wunderground v.1.15,2013-02-24 05:00:00,
2013-02-23 23:05:00,46.8,34.5,29.90,NNE,31,1.0,1.0,62,0.00,,,0.00,Wunderground v.1.15,2013-02-24 05:05:00,
2013-02-23 23:10:00,46.8,34.5,29.90,NNE,31,1.0,1.0,62,0.00,,,0.00,Wunderground v.1.15,2013-02-24 05:10:00,
2013-02-23 23:15:00,46.8,34.5,29.90,NNE,31,0.0,1.0,62,0.00,,,0.00,Wunderground v.1.15,2013-02-24 05:15:00,
2013-02-23 23:20:00,46.8,34.5,29.90,NNE,31,0.0,2.0,62,0.00,,,0.00,Wunderground v.1.15,2013-02-24 05:20:00,
2013-02-23 23:25:00,46.5,34.2,29.90,NNE,31,0.0,2.0,62,0.00,,,0.00,Wunderground v.1.15,2013-02-24 05:25:00,
2013-02-23 23:35:00,46.2,34.7,29.90,NNE,31,0.0,0.0,64,0.00,,,0.00,Wunderground v.1.15,2013-02-24 05:35:00,
2013-02-23 23:40:00,46.0,34.5,29.89,NNE,31,0.0,0.0,64,0.00,,,0.00,Wunderground v.1.15,2013-02-24 05:40:00,
2013-02-23 23:50:00,45.5,34.4,29.89,NNE,31,0.0,0.0,65,0.00,,,0.00,Wunderground v.1.15,2013-02-24 05:50:00,
2013-02-23 23:55:00,45.4,34.3,29.89,NNE,31,0.0,0.0,65,0.00,,,0.00,Wunderground v.1.15,2013-02-24 05:55:00,